createdAt,value
2023-12-30T00:02:55.490Z,101434.69
2023-12-30T00:07:06.188Z,101429.50
2023-12-30T00:11:27.683Z,101424.19
2023-12-30T00:15:43.279Z,101419.88
2023-12-30T00:19:54.271Z,101336.03
2023-12-30T00:24:02.287Z,101426.88
2023-12-30T00:28:41.819Z,101424.00
2023-12-30T00:33:10.714Z,101404.66
2023-12-30T00:37:37.698Z,101415.41
2023-12-30T00:41:45.992Z,101419.06
2023-12-30T00:46:02.953Z,101423.31
2023-12-30T00:50:37.282Z,101366.81
2023-12-30T00:54:48.173Z,101275.16
2023-12-30T00:59:02.008Z,101423.03
2023-12-30T01:03:29.657Z,101417.69
2023-12-30T01:07:52.440Z,101390.09
2023-12-30T01:12:30.612Z,101410.50
2023-12-30T01:16:52.507Z,101405.28
2023-12-30T01:21:01.078Z,101395.47
2023-12-30T01:25:13.312Z,101328.94
2023-12-30T01:29:53.821Z,101391.91
2023-12-30T01:34:12.675Z,101393.34
2023-12-30T01:38:25.004Z,101384.38
2023-12-30T01:42:45.310Z,101383.41
2023-12-30T01:47:00.448Z,101374.53
2023-12-30T01:51:24.929Z,101370.88
2023-12-30T01:56:10.177Z,101368.00
2023-12-30T02:00:30.283Z,101359.09
2023-12-30T02:04:39.552Z,101350.84
2023-12-30T02:08:51.162Z,101338.56
2023-12-30T02:12:53.827Z,101362.25
2023-12-30T02:17:03.170Z,101352.78
2023-12-30T02:21:09.530Z,101364.09
2023-12-30T02:25:21.999Z,101366.59
2023-12-30T02:29:41.237Z,101362.09
2023-12-30T02:34:12.797Z,101361.09
2023-12-30T02:38:59.680Z,101355.00
2023-12-30T02:44:15.302Z,101351.44
2023-12-30T02:48:56.954Z,101331.97
2023-12-30T02:53:37.585Z,101354.34
2023-12-30T02:57:50.397Z,101353.72
2023-12-30T03:02:00.294Z,101342.19
2023-12-30T03:06:11.262Z,101356.16
2023-12-30T03:14:53.681Z,101343.06
2023-12-30T03:19:09.492Z,101352.13
2023-12-30T03:23:19.777Z,101331.47
2023-12-30T03:27:26.056Z,101348.28
2023-12-30T03:31:43.022Z,101355.31
2023-12-30T03:36:05.707Z,101350.56
2023-12-30T03:40:20.826Z,101361.16
2023-12-30T03:44:39.498Z,101365.50
2023-12-30T03:48:45.881Z,101368.00
2023-12-30T03:53:04.824Z,101366.84
2023-12-30T03:57:23.583Z,101355.75
2023-12-30T04:01:28.991Z,101374.78
2023-12-30T04:05:34.662Z,101378.56
2023-12-30T04:09:42.207Z,101382.56
2023-12-30T04:13:49.648Z,101376.81
2023-12-30T04:18:06.365Z,101344.84
2023-12-30T04:22:12.861Z,101381.38
2023-12-30T04:26:23.582Z,101384.50
2023-12-30T04:30:40.151Z,101385.13
2023-12-30T04:34:51.352Z,101359.41
2023-12-30T04:39:12.979Z,101388.69
2023-12-30T04:53:08.819Z,101377.44
2023-12-30T04:57:22.435Z,101384.03
2023-12-30T05:01:41.799Z,101379.97
2023-12-30T05:05:42.471Z,101372.06
2023-12-30T05:10:01.288Z,101367.69
2023-12-30T05:14:10.504Z,101377.00
2023-12-30T05:18:37.749Z,101380.81
2023-12-30T05:23:00.117Z,101376.97
2023-12-30T05:27:17.048Z,101373.44
2023-12-30T05:31:31.323Z,101390.63
2023-12-30T05:35:41.459Z,101385.09
2023-12-30T05:39:47.475Z,101370.47
2023-12-30T05:44:07.092Z,101384.47
2023-12-30T05:48:11.905Z,101382.91
2023-12-30T05:52:40.786Z,101382.09
2023-12-30T05:56:57.088Z,101388.44
2023-12-30T06:01:02.217Z,101356.78
2023-12-30T06:05:15.550Z,101384.03
2023-12-30T06:09:31.855Z,101364.38
2023-12-30T06:13:54.610Z,101397.06
2023-12-30T06:18:52.291Z,101364.28
2023-12-30T06:23:12.298Z,101386.75
2023-12-30T06:27:32.148Z,101385.25
2023-12-30T06:31:38.876Z,101385.19
2023-12-30T06:35:42.906Z,101382.81
2023-12-30T06:39:49.883Z,101385.06
2023-12-30T06:44:08.145Z,101387.84
2023-12-30T06:48:23.217Z,101391.66
2023-12-30T06:52:50.486Z,101390.22
2023-12-30T06:56:56.552Z,101403.63
2023-12-30T07:01:10.295Z,101399.63
2023-12-30T07:05:20.693Z,101408.75
2023-12-30T07:09:43.590Z,101393.91
2023-12-30T07:13:54.990Z,101416.13
2023-12-30T07:18:05.653Z,101412.94
2023-12-30T07:22:11.386Z,101414.19
2023-12-30T07:26:23.436Z,101402.06
2023-12-30T07:30:33.762Z,101402.25
2023-12-30T07:35:07.178Z,101408.75
2023-12-30T07:39:10.865Z,101406.19
2023-12-30T07:43:23.353Z,101407.06
2023-12-30T07:52:12.807Z,101412.59
2023-12-30T07:56:19.959Z,101412.50
2023-12-30T08:00:26.491Z,101378.69
2023-12-30T08:09:00.262Z,101431.06
2023-12-30T08:13:15.327Z,101376.53
2023-12-30T08:17:21.798Z,101451.72
2023-12-30T08:21:30.201Z,101397.31
2023-12-30T08:25:32.873Z,101449.47
2023-12-30T08:29:36.746Z,101455.41
2023-12-30T08:33:43.094Z,101400.81
2023-12-30T08:37:45.892Z,101458.22
2023-12-30T08:41:58.577Z,101458.56
2023-12-30T08:46:05.781Z,101458.94
2023-12-30T08:50:07.542Z,101455.41
2023-12-30T08:54:17.231Z,101452.09
2023-12-30T08:58:29.367Z,101451.25
2023-12-30T09:02:35.027Z,101449.06
2023-12-30T09:06:39.142Z,101439.78
2023-12-30T09:10:59.102Z,101439.50
2023-12-30T09:15:13.422Z,101434.63
2023-12-30T09:19:34.477Z,101432.00
2023-12-30T09:24:00.623Z,101420.63
2023-12-30T09:28:17.477Z,101418.44
2023-12-30T09:32:27.140Z,101409.75
2023-12-30T09:36:42.078Z,101403.78
2023-12-30T09:40:43.806Z,101402.19
2023-12-30T09:44:47.570Z,101309.91
2023-12-30T09:48:59.438Z,101374.09
2023-12-30T09:53:43.322Z,101390.34
2023-12-30T09:57:55.277Z,101389.28
2023-12-30T10:02:05.716Z,101387.72
2023-12-30T10:06:54.267Z,101372.09
2023-12-30T10:11:26.832Z,101380.06
2023-12-30T10:19:57.969Z,101367.97
2023-12-30T10:24:15.802Z,101374.22
2023-12-30T10:28:22.985Z,101343.56
2023-12-30T10:32:31.099Z,101334.78
2023-12-30T10:36:39.690Z,101363.13
2023-12-30T10:41:17.266Z,101353.66
2023-12-30T10:45:33.552Z,101354.63
2023-12-30T10:50:27.256Z,101336.28
2023-12-30T10:55:14.257Z,101313.31
2023-12-30T10:59:32.934Z,101336.16
2023-12-30T11:03:44.800Z,101335.34
2023-12-30T11:07:55.670Z,101304.66
2023-12-30T11:12:00.809Z,101324.03
2023-12-30T11:16:46.842Z,101324.25
2023-12-30T11:21:17.023Z,101320.78
2023-12-30T11:25:19.195Z,101313.81
2023-12-30T11:29:31.908Z,101313.81
2023-12-30T11:33:40.575Z,101312.88
2023-12-30T11:42:48.180Z,101256.84
2023-12-30T11:46:56.995Z,101305.13
2023-12-30T11:51:15.549Z,101297.25
2023-12-30T11:55:37.899Z,101285.81
2023-12-30T11:59:49.286Z,101297.25
2023-12-30T12:04:06.045Z,101281.50
2023-12-30T12:08:16.179Z,101278.91
2023-12-30T12:12:59.710Z,101288.56
2023-12-30T12:17:37.724Z,101278.03
2023-12-30T12:21:53.512Z,101261.34
2023-12-30T12:26:22.844Z,101283.31
2023-12-30T12:30:56.910Z,101281.53
2023-12-30T12:36:40.331Z,101273.63
2023-12-30T12:40:55.585Z,101270.13
2023-12-30T12:45:17.099Z,101267.53
2023-12-30T12:49:45.761Z,101254.38
2023-12-30T12:54:20.467Z,101250.84
2023-12-30T13:08:38.720Z,101265.75
2023-12-30T13:13:13.449Z,101269.28
2023-12-30T13:17:24.315Z,101217.53
2023-12-30T13:21:42.737Z,101271.03
2023-12-30T13:25:47.856Z,101277.16
2023-12-30T13:29:48.693Z,101277.13
2023-12-30T13:34:02.216Z,101266.63
2023-12-30T13:38:25.524Z,101270.97
2023-12-30T13:42:29.137Z,101268.38
2023-12-30T13:51:42.179Z,101266.63
2023-12-30T13:55:53.009Z,101272.75
2023-12-30T14:00:25.284Z,101266.63
2023-12-30T14:04:57.060Z,101271.88
2023-12-30T14:09:33.181Z,101275.41
2023-12-30T14:14:29.528Z,101271.91
2023-12-30T14:18:39.721Z,101268.38
2023-12-30T14:23:04.224Z,101214.91
2023-12-30T14:27:11.240Z,101269.25
2023-12-30T14:31:33.331Z,101268.41
2023-12-30T14:40:59.818Z,101278.00
2023-12-30T14:45:22.681Z,101277.13
2023-12-30T14:49:48.611Z,101266.59
2023-12-30T14:55:02.326Z,101282.34
2023-12-30T14:59:51.331Z,101286.75
2023-12-30T15:05:13.655Z,101296.41
2023-12-30T15:10:04.116Z,101296.38
2023-12-30T15:20:23.111Z,101288.25
2023-12-30T15:34:06.113Z,101307.31
2023-12-30T15:38:17.978Z,101305.41
2023-12-30T15:42:43.471Z,101301.84
2023-12-30T15:47:00.316Z,101302.66
2023-12-30T15:51:07.659Z,101262.22
2023-12-30T15:55:12.007Z,101302.69
2023-12-30T15:59:18.973Z,101272.84
2023-12-30T16:03:27.270Z,101281.66
2023-12-30T16:07:31.913Z,101292.84
2023-12-30T16:11:33.394Z,101308.41
2023-12-30T16:15:40.393Z,101276.19
2023-12-30T16:19:44.861Z,101287.16
2023-12-30T16:23:50.227Z,101311.59
2023-12-30T16:27:55.374Z,101291.25
2023-12-30T16:32:02.477Z,101321.75
2023-12-30T16:36:06.725Z,101326.97
2023-12-30T16:40:16.494Z,101327.94
2023-12-30T16:44:23.155Z,101332.44
2023-12-30T16:48:24.670Z,101315.63
2023-12-30T16:52:35.648Z,101323.28
2023-12-30T16:56:38.750Z,101302.00
2023-12-30T17:00:42.840Z,101329.09
2023-12-30T17:04:50.367Z,101323.69
2023-12-30T17:09:08.488Z,101321.94
2023-12-30T17:13:14.467Z,101310.66
2023-12-30T17:17:19.091Z,101319.66
2023-12-30T17:21:31.871Z,101321.69
2023-12-30T17:25:39.326Z,101323.59
2023-12-30T17:29:46.014Z,101315.78
2023-12-30T17:33:48.923Z,101321.97
2023-12-30T17:37:53.610Z,101324.66
2023-12-30T17:42:02.569Z,101265.84
2023-12-30T17:46:13.446Z,101298.34
2023-12-30T17:50:33.002Z,101323.00
2023-12-30T17:54:37.855Z,101326.47
2023-12-30T17:58:39.439Z,101325.63
2023-12-30T18:02:53.733Z,101321.44
2023-12-30T18:06:59.567Z,101324.09
2023-12-30T18:11:09.562Z,101324.25
2023-12-30T18:15:13.124Z,101327.78
2023-12-30T18:19:20.361Z,101311.13
2023-12-30T18:23:25.360Z,101326.16
2023-12-30T18:27:26.049Z,101329.66
2023-12-30T18:31:32.785Z,101331.28
2023-12-30T18:35:59.041Z,101325.88
2023-12-30T18:40:03.100Z,101303.09
2023-12-30T18:44:07.023Z,101329.50
2023-12-30T18:48:44.911Z,101337.44
2023-12-30T18:53:20.799Z,101317.28
2023-12-30T18:57:45.393Z,101322.56
2023-12-30T19:02:04.010Z,101332.06
2023-12-30T19:06:16.283Z,101324.13
2023-12-30T19:10:24.008Z,101332.88
2023-12-30T19:14:38.109Z,101323.13
2023-12-30T19:18:41.132Z,101336.41
2023-12-30T19:22:53.915Z,101350.28
2023-12-30T19:27:30.395Z,101344.25
2023-12-30T19:31:37.232Z,101353.81
2023-12-30T19:35:58.841Z,101353.03
2023-12-30T19:39:59.878Z,101358.16
2023-12-30T19:44:08.778Z,101303.44
2023-12-30T19:48:16.435Z,101365.66
2023-12-30T19:52:19.548Z,101366.53
2023-12-30T19:56:29.560Z,101366.38
2023-12-30T20:00:32.811Z,101379.34
2023-12-30T20:04:48.439Z,101375.88
2023-12-30T20:08:58.962Z,101377.50
2023-12-30T20:13:19.744Z,101379.09
2023-12-30T20:17:26.506Z,101364.28
2023-12-30T20:21:41.454Z,101379.09
2023-12-30T20:25:43.081Z,101372.94
2023-12-30T20:29:48.497Z,101374.75
2023-12-30T20:33:57.049Z,101358.97
2023-12-30T20:38:07.908Z,101384.09
2023-12-30T20:46:32.126Z,101375.38
2023-12-30T20:50:40.964Z,101393.28
2023-12-30T20:54:43.528Z,101386.13
2023-12-30T20:58:45.144Z,101399.78
2023-12-30T21:02:47.037Z,101395.38
2023-12-30T21:06:50.530Z,101403.03
2023-12-30T21:10:57.438Z,101409.03
2023-12-30T21:15:07.292Z,101390.69
2023-12-30T21:19:12.472Z,101386.16
2023-12-30T21:23:21.272Z,101401.13
2023-12-30T21:27:30.516Z,101402.88
2023-12-30T21:31:33.772Z,101405.81
2023-12-30T21:35:39.812Z,101401.53
2023-12-30T21:39:58.106Z,101393.44
2023-12-30T21:44:04.761Z,101412.53
2023-12-30T21:48:09.753Z,101412.41
2023-12-30T21:52:20.029Z,101411.19
2023-12-30T21:56:28.924Z,101404.03
2023-12-30T22:00:33.588Z,101412.59
2023-12-30T22:04:37.179Z,101383.56
2023-12-30T22:08:41.339Z,101419.09
2023-12-30T22:12:56.154Z,101419.34
2023-12-30T22:17:08.465Z,101419.00
2023-12-30T22:21:23.090Z,101418.66
2023-12-30T22:25:35.275Z,101424.38
2023-12-30T22:29:49.164Z,101420.06
2023-12-30T22:34:11.185Z,101424.34
2023-12-30T22:38:49.601Z,101411.41
2023-12-30T22:43:08.311Z,101397.44
2023-12-30T22:47:14.882Z,101400.97
2023-12-30T22:51:36.758Z,101417.72
2023-12-30T22:55:43.417Z,101410.03
2023-12-30T23:00:01.353Z,101420.56
2023-12-30T23:04:12.866Z,101419.63
2023-12-30T23:08:30.609Z,101422.94
2023-12-30T23:12:34.441Z,101401.19
2023-12-30T23:16:53.301Z,101322.59
2023-12-30T23:21:19.537Z,101423.09
2023-12-30T23:25:36.570Z,101418.53
2023-12-30T23:29:41.013Z,101418.31
2023-12-30T23:33:46.130Z,101361.81
2023-12-30T23:37:57.099Z,101431.25
2023-12-30T23:42:00.808Z,101416.56
2023-12-30T23:46:07.831Z,101369.63
2023-12-30T23:50:13.971Z,101434.81
2023-12-30T23:54:17.694Z,101409.38
2023-12-30T23:58:21.542Z,101416.19
